Time;durP1;ratioP1;P1;durP2;ratioP2;P2;SDS_P1;SDS_P2;PMS_P1;PMS_P2;Temp;Humidity;BMP_temperature;BMP_pressure;BME280_temperature;BME280_humidity;BME280_pressure;Samples;Min_cycle;Max_cycle;Signal;HPM_P1;HPM_P2
2022/10/12 00:01:20;;;;;;;0.00;0.00;;;8.00;99.90;;;;;;5038346;28;20041;-83
2022/10/12 00:03:47;;;;;;;0.25;0.25;;;8.50;99.90;;;;;;5054764;28;20053;-83
2022/10/12 00:06:19;;;;;;;0.00;0.00;;;8.20;99.90;;;;;;5054995;28;20041;-83
2022/10/12 00:08:46;;;;;;;0.00;0.00;;;8.10;99.90;;;;;;5038496;28;20045;-83
2022/10/12 00:11:15;;;;;;;0.00;0.00;;;8.20;99.90;;;;;;5054832;28;20053;-83
2022/10/12 00:13:41;;;;;;;0.47;0.30;;;8.20;99.90;;;;;;5054731;28;20040;-83
2022/10/12 00:16:08;;;;;;;0.00;0.00;;;8.10;99.90;;;;;;5054798;28;20041;-83
2022/10/12 00:18:34;;;;;;;0.10;0.00;;;8.20;99.90;;;;;;5054752;28;20052;-83
2022/10/12 00:21:09;;;;;;;0.00;0.00;;;8.20;99.90;;;;;;5038229;28;20461;-83
2022/10/12 00:23:36;;;;;;;;;;;8.20;99.90;;;;;;5038274;28;20516;-82
2022/10/12 00:26:04;;;;;;;0.00;0.00;;;8.20;99.90;;;;;;5054360;28;19927;-82
2022/10/12 00:28:30;;;;;;;0.00;0.00;;;8.20;99.90;;;;;;5055245;28;20060;-82
2022/10/12 00:30:56;;;;;;;0.17;0.17;;;8.10;99.90;;;;;;5037795;28;20053;-82
2022/10/12 00:33:22;;;;;;;0.00;0.00;;;8.10;99.90;;;;;;5037916;28;20504;-83
2022/10/12 00:35:48;;;;;;;0.00;0.00;;;8.30;99.90;;;;;;5054965;28;20515;-83
2022/10/12 00:38:14;;;;;;;0.03;0.00;;;8.10;99.90;;;;;;5054599;28;20048;-83
2022/10/12 00:40:40;;;;;;;0.00;0.00;;;8.10;99.90;;;;;;5054293;28;20051;-83
2022/10/12 00:43:29;;;;;;;0.00;0.00;;;8.20;99.90;;;;;;5037526;28;20132;-82
2022/10/12 00:45:57;;;;;;;0.00;0.00;;;8.10;99.90;;;;;;5037866;28;20106;-82
2022/10/12 00:48:24;;;;;;;0.00;0.00;;;8.20;99.90;;;;;;5054152;28;20480;-83
2022/10/12 00:50:51;;;;;;;0.20;0.20;;;7.90;99.90;;;;;;5037286;28;20056;-83
2022/10/12 00:53:20;;;;;;;0.00;0.00;;;8.10;99.90;;;;;;5037533;28;20052;-83
2022/10/12 00:55:50;;;;;;;0.00;0.00;;;8.00;99.90;;;;;;5053871;28;20087;-83
2022/10/12 00:58:17;;;;;;;0.00;0.00;;;8.10;99.90;;;;;;5053927;28;20410;-82
2022/10/12 01:00:43;;;;;;;0.00;0.00;;;7.80;99.90;;;;;;5054112;28;20077;-83
2022/10/12 01:03:12;;;;;;;0.50;0.15;;;7.80;99.90;;;;;;5053853;28;20099;-83
2022/10/12 01:05:39;;;;;;;0.00;0.00;;;8.10;99.90;;;;;;5053773;28;20480;-82
2022/10/12 01:08:05;;;;;;;0.13;0.13;;;8.00;99.90;;;;;;5053740;28;20393;-83
2022/10/12 01:10:30;;;;;;;0.00;0.00;;;7.70;99.90;;;;;;5036784;28;20045;-83
2022/10/12 01:13:00;;;;;;;0.00;0.00;;;7.70;99.90;;;;;;5053672;28;20052;-83
2022/10/12 01:15:35;;;;;;;0.30;0.20;;;7.60;99.90;;;;;;5063697;28;20059;-83
2022/10/12 01:18:17;;;;;;;0.00;0.00;;;7.50;99.90;;;;;;5055611;28;20127;-83
2022/10/12 01:21:28;;;;;;;0.10;0.00;;;7.50;99.90;;;;;;5043089;28;20048;-83
2022/10/12 01:24:41;;;;;;;1.55;0.52;;;7.40;99.90;;;;;;5033667;28;20492;-83
2022/10/12 01:27:28;;;;;;;0.00;0.00;;;7.40;99.90;;;;;;4980311;28;20149;-82
2022/10/12 01:30:05;;;;;;;0.00;0.00;;;7.30;99.90;;;;;;4980413;28;20058;-83
2022/10/12 01:32:40;;;;;;;0.00;0.00;;;7.30;99.90;;;;;;5012780;28;20084;-83
2022/10/12 01:35:51;;;;;;;0.00;0.00;;;7.30;99.90;;;;;;5029305;28;20093;-83
2022/10/12 01:38:39;;;;;;;0.00;0.00;;;7.30;99.90;;;;;;4988262;28;20119;-83
2022/10/12 01:41:19;;;;;;;0.00;0.00;;;7.30;99.90;;;;;;5012556;28;20042;-83
2022/10/12 01:43:45;;;;;;;0.10;0.10;;;7.30;99.90;;;;;;4979740;28;20070;-83
2022/10/12 01:46:14;;;;;;;0.00;0.00;;;7.30;99.90;;;;;;5012150;28;20045;-83
2022/10/12 01:48:40;;;;;;;0.03;0.00;;;7.30;99.90;;;;;;4979608;28;20062;-83
2022/10/12 01:51:10;;;;;;;0.00;0.00;;;7.30;99.90;;;;;;5012339;28;20093;-83
2022/10/12 01:53:35;;;;;;;0.00;0.00;;;7.20;99.90;;;;;;5029068;28;20398;-83
2022/10/12 01:56:16;;;;;;;0.00;0.00;;;7.30;99.90;;;;;;4995207;28;20053;-83
2022/10/12 01:59:09;;;;;;;0.43;0.35;;;7.30;99.90;;;;;;5012920;28;20054;-83
2022/10/12 02:01:44;;;;;;;0.20;0.20;;;7.20;99.90;;;;;;5034391;28;20052;-83
2022/10/12 02:04:33;;;;;;;;;;;7.20;99.90;;;;;;5036897;28;20049;-83
2022/10/12 02:07:03;;;;;;;0.00;0.00;;;7.20;99.90;;;;;;4979753;28;19921;-83
2022/10/12 02:09:33;;;;;;;0.00;0.00;;;7.20;99.90;;;;;;5012201;28;20155;-83
2022/10/12 02:12:04;;;;;;;0.10;0.10;;;7.20;99.90;;;;;;4995688;28;20058;-83
2022/10/12 02:14:44;;;;;;;0.00;0.00;;;7.10;99.90;;;;;;5028875;28;20498;-83
2022/10/12 02:17:13;;;;;;;0.00;0.00;;;7.20;99.90;;;;;;5011746;28;20050;-83
2022/10/12 02:19:43;;;;;;;0.00;0.00;;;7.20;99.90;;;;;;5011889;28;20056;-83
2022/10/12 02:22:10;;;;;;;0.10;0.10;;;7.30;99.90;;;;;;5011628;28;20078;-83
2022/10/12 02:24:40;;;;;;;0.00;0.00;;;7.20;99.90;;;;;;4995600;28;20437;-83
2022/10/12 02:27:09;;;;;;;0.10;0.00;;;7.10;99.90;;;;;;5011891;28;20098;-83
2022/10/12 02:29:40;;;;;;;0.00;0.00;;;7.20;99.90;;;;;;4995488;28;20526;-83
2022/10/12 02:32:34;;;;;;;0.00;0.00;;;7.10;99.90;;;;;;5028021;28;20062;-83
2022/10/12 02:35:12;;;;;;;0.00;0.00;;;6.50;99.90;;;;;;4995714;28;20100;-83
2022/10/12 02:38:03;;;;;;;0.00;0.00;;;7.50;99.90;;;;;;4979107;28;20061;-84
2022/10/12 02:40:42;;;;;;;0.00;0.00;;;7.00;99.90;;;;;;4918248;29;20101;-83
2022/10/12 02:43:20;;;;;;;0.00;0.00;;;7.70;99.90;;;;;;4921731;29;20090;-83
2022/10/12 02:45:47;;;;;;;0.00;0.00;;;6.90;99.90;;;;;;4937614;29;20059;-83
2022/10/12 02:48:18;;;;;;;0.00;0.00;;;7.50;99.90;;;;;;4921550;28;20086;-83
2022/10/12 02:50:46;;;;;;;0.00;0.00;;;6.90;99.90;;;;;;4921043;29;20535;-83
2022/10/12 02:53:13;;;;;;;0.00;0.00;;;7.30;99.90;;;;;;4930790;29;20153;-83
2022/10/12 02:55:50;;;;;;;0.65;0.20;;;6.80;99.90;;;;;;4941805;29;20027;-84
2022/10/12 02:58:17;;;;;;;0.00;0.00;;;7.40;99.90;;;;;;4933207;29;20059;-84
2022/10/12 03:00:43;;;;;;;0.00;0.00;;;6.70;99.90;;;;;;4921588;28;20130;-83
2022/10/12 03:03:09;;;;;;;0.40;0.22;;;6.80;99.90;;;;;;4921785;29;20110;-83
2022/10/12 03:05:34;;;;;;;0.00;0.00;;;7.00;99.90;;;;;;4921304;28;20051;-84
2022/10/12 03:08:03;;;;;;;0.00;0.00;;;7.20;99.90;;;;;;4956476;28;20075;-83
2022/10/12 03:10:29;;;;;;;0.00;0.00;;;6.70;99.90;;;;;;4924805;29;20098;-84
2022/10/12 03:12:55;;;;;;;0.00;0.00;;;6.60;99.90;;;;;;4924784;29;20427;-83
2022/10/12 03:15:20;;;;;;;0.00;0.00;;;7.90;99.90;;;;;;4924868;28;20444;-83
2022/10/12 03:17:46;;;;;;;0.00;0.00;;;7.60;99.90;;;;;;5010214;28;20049;-83
2022/10/12 03:20:12;;;;;;;0.00;0.00;;;6.60;99.90;;;;;;5038685;28;20444;-84
2022/10/12 03:22:38;;;;;;;0.00;0.00;;;6.60;99.90;;;;;;5055678;28;20052;-83
2022/10/12 03:25:04;;;;;;;0.00;0.00;;;6.60;99.90;;;;;;5055356;28;20044;-83
2022/10/12 03:27:30;;;;;;;0.35;0.20;;;6.60;99.90;;;;;;5055651;28;20041;-83
2022/10/12 03:29:55;;;;;;;0.00;0.00;;;6.50;99.90;;;;;;5038893;28;20117;-84
2022/10/12 03:32:21;;;;;;;0.00;0.00;;;6.60;99.90;;;;;;5055237;28;20125;-84
2022/10/12 03:34:47;;;;;;;0.00;0.00;;;6.50;99.90;;;;;;5039078;28;20045;-83
2022/10/12 03:37:12;;;;;;;0.00;0.00;;;6.40;99.90;;;;;;5038863;28;20056;-84
2022/10/12 03:39:38;;;;;;;0.08;0.00;;;6.60;99.90;;;;;;5055193;28;20045;-84
2022/10/12 03:42:04;;;;;;;0.00;0.00;;;6.50;99.90;;;;;;5038557;28;20115;-84
2022/10/12 03:44:30;;;;;;;0.38;0.00;;;6.40;99.90;;;;;;5038449;28;20045;-84
2022/10/12 03:46:55;;;;;;;0.00;0.00;;;7.00;99.90;;;;;;5038681;28;20057;-83
2022/10/12 03:49:21;;;;;;;0.00;0.00;;;7.30;99.90;;;;;;5055218;28;20085;-84
2022/10/12 03:51:47;;;;;;;0.00;0.00;;;6.00;99.90;;;;;;5038091;28;20052;-83
2022/10/12 03:54:12;;;;;;;0.00;0.00;;;6.30;99.90;;;;;;5055124;28;20041;-83
2022/10/12 03:56:38;;;;;;;0.00;0.00;;;6.30;99.90;;;;;;5055243;28;20135;-84
2022/10/12 03:59:04;;;;;;;0.60;0.32;;;7.20;99.90;;;;;;5038379;28;20139;-84
2022/10/12 04:01:30;;;;;;;0.00;0.00;;;6.50;99.90;;;;;;5038827;28;20073;-84
2022/10/12 04:03:55;;;;;;;0.00;0.00;;;6.60;99.90;;;;;;5038181;28;20053;-83
2022/10/12 04:06:21;;;;;;;0.00;0.00;;;6.70;99.90;;;;;;5055166;28;20102;-84
2022/10/12 04:08:47;;;;;;;0.00;0.00;;;6.40;99.90;;;;;;5038383;28;20044;-84
2022/10/12 04:11:12;;;;;;;0.00;0.00;;;6.10;99.90;;;;;;5038060;28;20045;-83
2022/10/12 04:13:38;;;;;;;0.10;0.05;;;6.10;99.90;;;;;;5038002;28;20041;-83
2022/10/12 04:16:05;;;;;;;0.00;0.00;;;6.00;99.90;;;;;;5038934;28;20048;-84
2022/10/12 04:18:32;;;;;;;0.00;0.00;;;6.20;99.90;;;;;;5037319;28;20076;-84
2022/10/12 04:20:59;;;;;;;0.00;0.00;;;6.10;99.90;;;;;;5054737;28;20037;-83
2022/10/12 04:23:25;;;;;;;0.00;0.00;;;6.70;99.90;;;;;;5054626;28;20045;-84
2022/10/12 04:25:51;;;;;;;0.00;0.00;;;6.70;99.90;;;;;;5037673;28;20041;-84
2022/10/12 04:28:16;;;;;;;0.03;0.03;;;6.50;99.90;;;;;;5042644;28;20048;-84
2022/10/12 04:30:44;;;;;;;0.00;0.00;;;6.60;99.90;;;;;;5074349;28;20044;-84
2022/10/12 04:33:10;;;;;;;0.00;0.00;;;5.90;99.90;;;;;;5052722;28;20110;-84
2022/10/12 04:35:36;;;;;;;0.57;0.20;;;7.50;99.90;;;;;;5054869;28;20053;-84
2022/10/12 04:38:01;;;;;;;0.10;0.10;;;6.10;99.90;;;;;;5038152;28;20141;-84
2022/10/12 04:40:27;;;;;;;0.20;0.20;;;6.30;99.90;;;;;;5054452;28;20068;-84
2022/10/12 04:42:54;;;;;;;0.00;0.00;;;6.40;99.90;;;;;;5053834;28;20476;-84
2022/10/12 04:45:20;;;;;;;0.00;0.00;;;6.10;99.90;;;;;;5054050;28;20056;-84
2022/10/12 04:47:46;;;;;;;0.00;0.00;;;6.80;99.90;;;;;;5038046;28;20057;-84
2022/10/12 04:50:12;;;;;;;0.00;0.00;;;7.40;99.90;;;;;;5054096;28;20064;-84
2022/10/12 04:52:38;;;;;;;0.00;0.00;;;6.30;99.90;;;;;;5054125;28;20044;-84
2022/10/12 04:55:04;;;;;;;0.00;0.00;;;5.20;99.90;;;;;;5053855;28;20045;-84
2022/10/12 04:57:29;;;;;;;0.00;0.00;;;5.80;99.90;;;;;;5053791;28;20507;-84
2022/10/12 04:59:55;;;;;;;0.00;0.00;;;6.10;99.90;;;;;;5054033;28;20037;-83
2022/10/12 05:02:21;;;;;;;0.00;0.00;;;6.30;99.90;;;;;;5037571;28;20485;-84
2022/10/12 05:04:46;;;;;;;0.00;0.00;;;5.80;99.90;;;;;;5054115;28;20076;-84
2022/10/12 05:07:12;;;;;;;0.00;0.00;;;5.80;99.90;;;;;;5054000;28;20041;-84
2022/10/12 05:09:38;;;;;;;0.00;0.00;;;5.70;99.90;;;;;;5037133;28;20116;-83
2022/10/12 05:12:04;;;;;;;0.28;0.15;;;5.80;99.90;;;;;;5053453;28;20056;-83
2022/10/12 05:14:29;;;;;;;0.00;0.00;;;5.60;99.90;;;;;;5037336;28;20048;-83
2022/10/12 05:16:55;;;;;;;0.20;0.20;;;5.60;99.90;;;;;;5053751;28;20044;-84
2022/10/12 05:19:21;;;;;;;0.52;0.25;;;5.80;99.90;;;;;;5037174;28;20075;-83
2022/10/12 05:21:47;;;;;;;0.00;0.00;;;5.60;99.90;;;;;;5036810;28;20048;-84
2022/10/12 05:24:12;;;;;;;1.13;0.70;;;6.10;99.90;;;;;;5037209;28;20401;-84
2022/10/12 05:26:38;;;;;;;0.25;0.25;;;5.50;99.90;;;;;;5036389;28;20059;-84
2022/10/12 05:29:04;;;;;;;0.00;0.00;;;5.50;99.90;;;;;;5037103;28;20049;-84
2022/10/12 05:31:29;;;;;;;0.00;0.00;;;5.90;99.90;;;;;;5053522;28;20041;-84
2022/10/12 05:33:55;;;;;;;0.00;0.00;;;5.70;99.90;;;;;;5053642;28;20131;-84
2022/10/12 05:36:21;;;;;;;0.15;0.15;;;6.40;99.90;;;;;;5053523;28;20041;-84
2022/10/12 05:38:47;;;;;;;0.00;0.00;;;5.60;99.90;;;;;;5037049;28;20463;-84
2022/10/12 05:41:13;;;;;;;0.00;0.00;;;6.20;99.90;;;;;;5053107;28;20048;-83
2022/10/12 05:43:39;;;;;;;0.00;0.00;;;5.50;99.90;;;;;;5037081;28;20078;-84
2022/10/12 05:46:05;;;;;;;0.00;0.00;;;6.30;99.90;;;;;;5053424;28;20076;-84
2022/10/12 05:48:32;;;;;;;0.63;0.15;;;5.40;99.90;;;;;;5053463;28;20040;-84
2022/10/12 05:50:57;;;;;;;0.00;0.00;;;5.40;99.90;;;;;;5036493;28;20139;-84
2022/10/12 05:53:23;;;;;;;0.00;0.00;;;5.30;99.90;;;;;;5036901;28;20136;-83
2022/10/12 05:55:57;;;;;;;0.00;0.00;;;5.30;99.90;;;;;;5053482;28;20484;-88
2022/10/12 05:58:24;;;;;;;0.00;0.00;;;5.30;99.90;;;;;;5037354;28;20045;-84
2022/10/12 06:00:49;;;;;;;0.00;0.00;;;5.70;99.90;;;;;;5053254;28;20132;-84
2022/10/12 06:03:16;;;;;;;0.00;0.00;;;5.20;99.90;;;;;;5069764;28;20047;-84
2022/10/12 06:05:42;;;;;;;0.00;0.00;;;5.20;99.90;;;;;;5071902;28;20041;-84
2022/10/12 06:08:08;;;;;;;0.00;0.00;;;5.30;99.90;;;;;;5039202;28;20056;-83
2022/10/12 06:10:35;;;;;;;0.00;0.00;;;5.30;99.90;;;;;;5036917;28;20037;-84
2022/10/12 06:13:01;;;;;;;0.00;0.00;;;5.50;99.90;;;;;;5053863;28;20093;-84
2022/10/12 06:15:27;;;;;;;0.00;0.00;;;5.20;99.90;;;;;;5036557;28;20052;-84
2022/10/12 06:17:52;;;;;;;0.25;0.25;;;5.40;99.90;;;;;;5053602;28;20057;-84
2022/10/12 06:20:18;;;;;;;0.10;0.10;;;5.40;99.90;;;;;;5053186;28;20047;-84
2022/10/12 06:22:44;;;;;;;0.00;0.00;;;5.40;99.90;;;;;;5036694;28;20397;-84
2022/10/12 06:25:09;;;;;;;0.00;0.00;;;5.40;99.90;;;;;;5053499;28;20132;-84
2022/10/12 06:27:35;;;;;;;0.00;0.00;;;5.40;99.90;;;;;;5036907;28;20052;-84
2022/10/12 06:30:01;;;;;;;1.45;0.43;;;5.60;99.90;;;;;;5036423;28;20128;-84
2022/10/12 06:32:26;;;;;;;0.00;0.00;;;5.60;99.90;;;;;;5036228;28;20059;-84
2022/10/12 06:34:52;;;;;;;0.00;0.00;;;5.50;99.90;;;;;;5053267;28;20539;-84
2022/10/12 06:37:18;;;;;;;0.10;0.03;;;5.50;99.90;;;;;;5052661;28;20049;-84
2022/10/12 06:39:43;;;;;;;0.03;0.00;;;5.50;99.90;;;;;;5052768;28;20052;-84
2022/10/12 06:42:10;;;;;;;0.15;0.15;;;5.50;99.90;;;;;;5054923;28;20095;-84
2022/10/12 06:44:36;;;;;;;0.08;0.03;;;5.50;99.90;;;;;;5057232;28;20049;-84
2022/10/12 06:47:02;;;;;;;5.60;0.60;;;5.50;99.90;;;;;;5056634;28;20603;-84
2022/10/12 06:49:27;;;;;;;0.00;0.00;;;5.50;99.90;;;;;;5040015;28;20099;-84
2022/10/12 06:51:53;;;;;;;0.45;0.45;;;5.50;99.90;;;;;;5055314;28;20382;-84
2022/10/12 06:54:19;;;;;;;0.70;0.13;;;5.50;99.90;;;;;;5056487;28;20060;-84
2022/10/12 06:56:44;;;;;;;0.25;0.03;;;5.50;99.90;;;;;;5056070;28;20485;-83
2022/10/12 06:59:12;;;;;;;0.00;0.00;;;5.50;99.90;;;;;;5040236;28;20053;-84
2022/10/12 07:01:38;;;;;;;0.57;0.35;;;5.50;99.90;;;;;;5056205;28;20481;-83
2022/10/12 07:04:03;;;;;;;0.10;0.00;;;5.50;99.90;;;;;;5040575;28;20067;-83
2022/10/12 07:06:29;;;;;;;0.00;0.00;;;5.60;99.90;;;;;;5055824;28;20041;-83
2022/10/12 07:08:55;;;;;;;0.20;0.20;;;5.60;99.90;;;;;;5055646;28;20049;-83
2022/10/12 07:11:21;;;;;;;0.00;0.00;;;5.60;99.90;;;;;;5040055;28;20124;-83
2022/10/12 07:13:47;;;;;;;0.00;0.00;;;5.70;99.90;;;;;;5039448;28;20047;-84
2022/10/12 07:16:12;;;;;;;0.52;0.00;;;5.70;99.90;;;;;;5039236;28;20048;-85
2022/10/12 07:18:39;;;;;;;0.00;0.00;;;5.80;99.90;;;;;;5056301;28;20041;-83
2022/10/12 07:21:04;;;;;;;0.10;0.00;;;5.90;99.90;;;;;;5056052;28;20538;-83
2022/10/12 07:23:31;;;;;;;0.05;0.05;;;6.00;99.90;;;;;;5039657;28;20048;-83
2022/10/12 07:25:58;;;;;;;0.00;0.00;;;6.10;99.90;;;;;;5055969;28;20045;-84
2022/10/12 07:28:23;;;;;;;0.22;0.10;;;6.20;99.90;;;;;;5039489;28;20052;-83
2022/10/12 07:30:49;;;;;;;0.00;0.00;;;6.30;99.90;;;;;;5056192;28;20045;-84
2022/10/12 07:33:15;;;;;;;0.10;0.10;;;6.40;99.90;;;;;;5064675;28;20052;-83
2022/10/12 07:35:41;;;;;;;2.92;0.22;;;6.70;99.90;;;;;;5054280;28;20037;-83
2022/10/12 07:38:07;;;;;;;0.00;0.00;;;6.60;99.90;;;;;;5045778;28;20045;-84
2022/10/12 07:40:33;;;;;;;0.00;0.00;;;6.70;99.90;;;;;;5039420;28;20064;-83
2022/10/12 07:42:58;;;;;;;0.13;0.10;;;6.90;99.90;;;;;;5039268;28;20061;-84
2022/10/12 07:45:27;;;;;;;0.00;0.00;;;7.10;99.90;;;;;;5055965;28;20040;-83
2022/10/12 07:47:56;;;;;;;0.15;0.15;;;7.20;99.90;;;;;;5055487;28;20442;-83
2022/10/12 07:50:24;;;;;;;0.00;0.00;;;7.40;99.90;;;;;;5055401;28;20048;-84
2022/10/12 07:52:49;;;;;;;0.05;0.05;;;7.60;99.90;;;;;;5054432;28;20045;-84
2022/10/12 07:55:15;;;;;;;0.00;0.00;;;7.90;99.90;;;;;;5039001;28;20045;-83
2022/10/12 07:57:43;;;;;;;0.10;0.00;;;8.10;99.90;;;;;;5055767;28;20048;-83
2022/10/12 08:00:09;;;;;;;0.00;0.00;;;8.30;99.90;;;;;;5038553;28;20063;-83
2022/10/12 08:02:36;;;;;;;0.00;0.00;;;8.50;99.90;;;;;;5039009;28;20068;-84
2022/10/12 08:05:02;;;;;;;0.00;0.00;;;8.60;99.90;;;;;;5054590;28;20504;-83
2022/10/12 08:07:27;;;;;;;0.10;0.10;;;8.80;99.90;;;;;;5055396;28;20045;-83
2022/10/12 08:09:53;;;;;;;0.00;0.00;;;9.00;99.90;;;;;;5038657;28;20060;-83
2022/10/12 08:12:19;;;;;;;0.10;0.10;;;9.10;99.90;;;;;;5055140;28;20045;-83
2022/10/12 08:14:45;;;;;;;0.00;0.00;;;9.00;99.90;;;;;;5038362;28;20049;-83
2022/10/12 08:17:11;;;;;;;0.00;0.00;;;9.50;99.90;;;;;;5055162;28;20045;-83
2022/10/12 08:19:36;;;;;;;0.10;0.10;;;9.40;99.90;;;;;;5054612;28;20056;-83
2022/10/12 08:22:02;;;;;;;0.00;0.00;;;9.50;99.90;;;;;;5054687;28;20083;-83
2022/10/12 08:24:27;;;;;;;0.03;0.03;;;9.50;99.90;;;;;;5038301;28;20084;-83
2022/10/12 08:26:53;;;;;;;0.52;0.38;;;9.60;99.90;;;;;;5054724;28;20041;-83
2022/10/12 08:29:19;;;;;;;0.30;0.30;;;9.70;99.90;;;;;;5038293;28;20056;-85
2022/10/12 08:31:44;;;;;;;0.00;0.00;;;9.70;99.90;;;;;;5036557;28;20412;-84
2022/10/12 08:34:10;;;;;;;0.00;0.00;;;9.70;99.90;;;;;;5037219;28;20409;-84
2022/10/12 08:36:36;;;;;;;0.00;0.00;;;9.80;99.90;;;;;;5038420;28;20049;-85
2022/10/12 08:39:05;;;;;;;0.00;0.00;;;9.80;99.90;;;;;;5037548;28;20059;-84
2022/10/12 08:42:05;;;;;;;0.00;0.00;;;9.90;99.90;;;;;;5037517;28;20037;-84
2022/10/12 08:44:34;;;;;;;0.00;0.00;;;9.90;99.90;;;;;;5054120;28;20041;-84
2022/10/12 08:47:13;;;;;;;0.30;0.20;;;9.90;99.90;;;;;;5054847;28;20049;-84
2022/10/12 08:49:40;;;;;;;0.00;0.00;;;9.90;99.90;;;;;;5034737;28;20060;-84
2022/10/12 08:52:23;;;;;;;0.63;0.35;;;9.90;99.90;;;;;;5017113;28;20053;-84
2022/10/12 08:54:49;;;;;;;0.00;0.00;;;10.00;99.90;;;;;;5033880;28;20473;-84
2022/10/12 08:57:17;;;;;;;0.52;0.52;;;10.00;99.90;;;;;;5034134;28;20100;-84
2022/10/12 08:59:44;;;;;;;0.00;0.00;;;10.10;99.90;;;;;;5018177;28;20068;-84
2022/10/12 09:02:33;;;;;;;2.53;0.08;;;10.00;99.90;;;;;;5033831;28;20136;-84
2022/10/12 09:05:02;;;;;;;0.00;0.00;;;10.20;99.90;;;;;;5033683;28;20045;-84
2022/10/12 09:07:44;;;;;;;0.10;0.10;;;10.30;99.90;;;;;;5033603;28;20042;-83
2022/10/12 09:10:25;;;;;;;0.00;0.00;;;10.30;99.90;;;;;;5017525;28;20489;-83
2022/10/12 09:13:16;;;;;;;0.00;0.00;;;10.40;99.90;;;;;;5033899;28;20037;-83
2022/10/12 09:16:00;;;;;;;0.03;0.00;;;10.50;99.90;;;;;;5018127;28;20049;-83
2022/10/12 09:18:38;;;;;;;2.17;1.00;;;10.50;99.90;;;;;;5017948;28;20045;-83
2022/10/12 09:21:06;;;;;;;0.38;0.17;;;10.60;99.90;;;;;;5054342;28;20069;-83
2022/10/12 09:23:38;;;;;;;0.08;0.03;;;10.60;99.90;;;;;;5055176;28;20037;-83
2022/10/12 09:26:16;;;;;;;0.00;0.00;;;10.80;99.90;;;;;;5035414;28;20135;-83
2022/10/12 09:28:46;;;;;;;0.00;0.00;;;10.70;99.90;;;;;;5033714;28;20042;-83
2022/10/12 09:31:47;;;;;;;1.65;0.65;;;10.80;99.90;;;;;;5017134;28;20442;-83
2022/10/12 09:34:13;;;;;;;0.00;0.00;;;10.90;99.90;;;;;;5034004;28;20084;-83
2022/10/12 09:36:40;;;;;;;0.17;0.17;;;11.10;99.90;;;;;;5033285;28;20505;-83
2022/10/12 09:39:14;;;;;;;0.00;0.00;;;11.60;99.90;;;;;;5033398;28;20452;-83
2022/10/12 09:41:42;;;;;;;0.00;0.00;;;11.50;99.90;;;;;;5017051;28;20087;-83
2022/10/12 09:44:23;;;;;;;0.00;0.00;;;11.70;99.90;;;;;;5033245;28;20053;-83
2022/10/12 09:46:53;;;;;;;0.05;0.00;;;11.90;99.90;;;;;;5016623;28;20184;-83
2022/10/12 09:49:19;;;;;;;0.00;0.00;;;12.10;99.90;;;;;;5033993;28;20096;-83
2022/10/12 09:51:45;;;;;;;0.05;0.03;;;12.20;99.90;;;;;;5033007;28;20179;-83
2022/10/12 09:54:18;;;;;;;0.10;0.10;;;12.50;99.90;;;;;;5017099;28;20473;-83
2022/10/12 09:56:51;;;;;;;0.00;0.00;;;13.30;99.90;;;;;;5033248;28;20089;-83
2022/10/12 09:59:42;;;;;;;0.00;0.00;;;12.90;99.90;;;;;;5017320;28;20053;-83
2022/10/12 10:02:25;;;;;;;0.28;0.10;;;13.10;99.90;;;;;;5033525;28;20103;-83
2022/10/12 10:04:52;;;;;;;0.00;0.00;;;13.40;99.90;;;;;;5017144;28;20049;-83
2022/10/12 10:07:29;;;;;;;0.00;0.00;;;13.60;99.90;;;;;;5033458;28;20361;-83
2022/10/12 10:10:17;;;;;;;0.00;0.00;;;14.10;99.90;;;;;;5016817;28;20041;-83
2022/10/12 10:12:54;;;;;;;0.10;0.10;;;14.70;99.90;;;;;;5033321;28;20128;-82
2022/10/12 10:15:25;;;;;;;0.20;0.20;;;15.00;99.90;;;;;;5032691;28;20485;-82
2022/10/12 10:17:54;;;;;;;0.10;0.00;;;15.20;99.90;;;;;;5032746;28;20049;-82
2022/10/12 10:20:25;;;;;;;0.00;0.00;;;15.40;99.90;;;;;;5016420;28;20045;-83
2022/10/12 10:22:51;;;;;;;0.17;0.17;;;15.60;99.90;;;;;;5016728;28;20118;-83
2022/10/12 10:25:21;;;;;;;0.20;0.20;;;15.80;99.90;;;;;;5049454;28;20489;-83
2022/10/12 10:28:07;;;;;;;0.00;0.00;;;16.00;99.90;;;;;;5032981;28;20379;-83
2022/10/12 10:30:32;;;;;;;0.00;0.00;;;16.20;99.90;;;;;;5015940;28;20052;-83
2022/10/12 10:33:18;;;;;;;0.00;0.00;;;16.30;99.90;;;;;;5034058;28;20039;-83
2022/10/12 10:36:04;;;;;;;;;;;16.30;99.90;;;;;;5033120;28;20087;-83
2022/10/12 10:38:59;;;;;;;0.00;0.00;;;16.40;99.90;;;;;;5034390;28;19916;-83
2022/10/12 10:41:44;;;;;;;0.03;0.03;;;16.70;99.90;;;;;;5033548;28;20132;-83
2022/10/12 10:44:31;;;;;;;0.25;0.25;;;16.60;99.90;;;;;;5061077;28;20040;-83
2022/10/12 10:47:16;;;;;;;0.68;0.52;;;16.60;99.90;;;;;;5032523;28;20036;-82
2022/10/12 10:49:49;;;;;;;1.45;0.43;;;16.60;99.90;;;;;;5032699;28;20049;-83
2022/10/12 10:52:35;;;;;;;0.30;0.25;;;16.50;99.90;;;;;;5033292;28;20049;-83
2022/10/12 10:55:10;;;;;;;0.00;0.00;;;16.40;99.90;;;;;;5032622;28;20045;-83
2022/10/12 10:57:44;;;;;;;;;;;16.40;99.90;;;;;;5016546;28;20053;-83
2022/10/12 11:00:16;;;;;;;0.00;0.00;;;16.30;99.90;;;;;;5031823;28;19928;-84
2022/10/12 11:03:08;;;;;;;0.30;0.17;;;16.50;99.90;;;;;;5016855;28;20068;-84
2022/10/12 11:05:46;;;;;;;0.05;0.05;;;16.50;99.90;;;;;;4995065;28;20145;-84
2022/10/12 11:08:20;;;;;;;0.28;0.28;;;16.50;99.90;;;;;;5037963;28;20062;-83
2022/10/12 11:10:59;;;;;;;0.05;0.05;;;16.50;99.90;;;;;;5044721;28;20053;-83
2022/10/12 11:13:32;;;;;;;0.10;0.00;;;16.60;99.90;;;;;;5025373;28;20058;-84
2022/10/12 11:16:07;;;;;;;0.22;0.22;;;16.70;99.90;;;;;;5012224;28;20061;-83
2022/10/12 11:18:45;;;;;;;;;;;16.80;99.90;;;;;;5029029;28;20047;-83
2022/10/12 11:21:21;;;;;;;0.03;0.03;;;16.50;99.90;;;;;;4995180;28;19921;-84
2022/10/12 11:23:58;;;;;;;0.00;0.00;;;16.30;99.90;;;;;;5012044;28;20064;-83
2022/10/12 11:26:38;;;;;;;0.00;0.00;;;16.40;99.90;;;;;;5011904;28;20398;-83
2022/10/12 11:29:04;;;;;;;0.00;0.00;;;16.40;99.90;;;;;;5031677;28;20068;-84
2022/10/12 11:31:33;;;;;;;0.00;0.00;;;16.20;99.90;;;;;;5015061;28;20045;-83
2022/10/12 11:34:03;;;;;;;0.00;0.00;;;16.50;99.90;;;;;;4998774;28;20205;-83
2022/10/12 11:36:31;;;;;;;0.05;0.00;;;16.60;99.90;;;;;;5015296;28;20150;-83
2022/10/12 11:39:01;;;;;;;0.00;0.00;;;16.60;99.90;;;;;;5031547;28;20045;-83
2022/10/12 11:41:46;;;;;;;0.00;0.00;;;16.50;99.90;;;;;;5031398;28;20050;-83
2022/10/12 11:44:11;;;;;;;;;;;16.60;99.90;;;;;;5019842;28;20128;-83
2022/10/12 11:47:00;;;;;;;0.00;0.00;;;16.40;99.90;;;;;;5019130;28;19960;-83
2022/10/12 11:49:30;;;;;;;0.00;0.00;;;16.50;99.90;;;;;;5052476;28;20056;-83
2022/10/12 11:51:59;;;;;;;0.00;0.00;;;16.70;99.90;;;;;;5035339;28;20061;-83
2022/10/12 11:54:40;;;;;;;0.00;0.00;;;16.70;99.90;;;;;;5019024;28;20046;-83
2022/10/12 11:57:15;;;;;;;0.00;0.00;;;16.80;99.90;;;;;;5036034;28;20077;-83
2022/10/12 11:59:43;;;;;;;;;;;17.00;99.90;;;;;;5036098;28;20052;-83
2022/10/12 12:02:30;;;;;;;0.45;0.40;;;17.40;99.60;;;;;;5035109;28;19975;-83
2022/10/12 12:04:57;;;;;;;0.00;0.00;;;17.60;97.60;;;;;;5035774;28;20049;-82
2022/10/12 12:07:42;;;;;;;0.00;0.00;;;18.10;98.20;;;;;;5035534;28;20532;-83
2022/10/12 12:10:26;;;;;;;0.00;0.00;;;18.60;96.30;;;;;;5035523;28;20048;-83
2022/10/12 12:13:11;;;;;;;0.08;0.00;;;18.90;96.30;;;;;;5035326;28;20068;-82
2022/10/12 12:15:46;;;;;;;0.10;0.10;;;19.00;95.00;;;;;;5035027;28;20129;-84
2022/10/12 12:18:23;;;;;;;0.00;0.00;;;19.10;93.70;;;;;;5019020;28;20052;-82
2022/10/12 12:21:08;;;;;;;0.00;0.00;;;19.20;94.30;;;;;;5018278;28;20045;-83
2022/10/12 12:23:37;;;;;;;0.10;0.10;;;18.90;92.80;;;;;;5018783;28;20477;-83
2022/10/12 12:26:09;;;;;;;0.00;0.00;;;18.90;93.70;;;;;;5035298;28;20287;-82
2022/10/12 12:28:49;;;;;;;0.00;0.00;;;18.90;93.80;;;;;;5035044;28;20048;-83
2022/10/12 12:31:22;;;;;;;0.00;0.00;;;18.90;93.20;;;;;;5018339;28;20384;-83
2022/10/12 12:34:00;;;;;;;0.00;0.00;;;18.70;92.90;;;;;;5034890;28;20169;-83
2022/10/12 12:36:31;;;;;;;0.15;0.15;;;18.80;93.60;;;;;;5051449;28;20506;-83
2022/10/12 12:38:57;;;;;;;0.00;0.00;;;18.60;93.30;;;;;;5034131;28;20124;-82
2022/10/12 12:41:42;;;;;;;0.00;0.00;;;18.30;93.00;;;;;;5034404;28;20050;-83
2022/10/12 12:44:36;;;;;;;0.00;0.00;;;18.20;93.90;;;;;;5034169;28;20084;-83
2022/10/12 12:47:02;;;;;;;0.00;0.00;;;18.00;93.40;;;;;;5034681;28;20124;-83
2022/10/12 12:49:37;;;;;;;0.00;0.00;;;17.90;93.50;;;;;;5034711;28;20143;-83
2022/10/12 12:52:21;;;;;;;0.00;0.00;;;17.80;93.90;;;;;;5017539;28;20398;-82
2022/10/12 12:55:14;;;;;;;0.00;0.00;;;17.70;93.70;;;;;;5017842;28;20107;-82
2022/10/12 12:57:55;;;;;;;0.00;0.00;;;17.50;95.80;;;;;;5033323;28;20056;-83
2022/10/12 13:00:29;;;;;;;0.00;0.00;;;17.40;94.50;;;;;;5022607;28;20053;-82
2022/10/12 13:03:10;;;;;;;0.00;0.00;;;17.50;95.30;;;;;;5054498;28;20049;-83
2022/10/12 13:06:16;;;;;;;0.00;0.00;;;17.50;94.80;;;;;;5054575;28;20489;-83
2022/10/12 13:09:11;;;;;;;0.00;0.00;;;17.40;94.00;;;;;;5072510;28;20059;-83
2022/10/12 13:11:39;;;;;;;0.00;0.00;;;17.40;95.20;;;;;;5061687;28;20041;-83
2022/10/12 13:14:19;;;;;;;0.03;0.00;;;17.40;94.50;;;;;;5043710;28;20045;-82
2022/10/12 13:16:51;;;;;;;0.00;0.00;;;17.40;95.00;;;;;;5055894;28;20048;-83